createdAt,value
2023-10-23T00:02:01.566Z,0.80
2023-10-23T00:04:29.352Z,0.73
2023-10-23T00:06:57.064Z,1.35
2023-10-23T00:09:24.726Z,1.23
2023-10-23T00:11:52.492Z,1.00
2023-10-23T00:14:20.188Z,1.02
2023-10-23T00:16:47.891Z,1.90
2023-10-23T00:19:17.099Z,1.02
2023-10-23T00:21:45.765Z,1.15
2023-10-23T00:24:13.841Z,0.90
2023-10-23T00:26:41.578Z,1.00
2023-10-23T00:29:09.542Z,0.93
2023-10-23T00:31:37.266Z,1.10
2023-10-23T00:34:05.083Z,0.88
2023-10-23T00:36:34.244Z,1.15
2023-10-23T00:39:01.913Z,1.25
2023-10-23T00:41:29.601Z,1.30
2023-10-23T00:43:57.302Z,1.08
2023-10-23T00:46:27.562Z,1.00
2023-10-23T00:48:55.327Z,1.30
2023-10-23T00:51:23.569Z,1.00
2023-10-23T00:53:53.858Z,1.23
2023-10-23T00:56:21.721Z,1.33
2023-10-23T00:58:49.555Z,1.27
2023-10-23T01:01:17.564Z,1.00
2023-10-23T01:03:45.846Z,1.10
2023-10-23T01:06:14.928Z,0.77
2023-10-23T01:08:43.974Z,1.20
2023-10-23T01:11:13.099Z,0.80
2023-10-23T01:13:41.012Z,0.80
2023-10-23T01:16:08.755Z,0.83
2023-10-23T01:18:36.486Z,0.77
2023-10-23T01:21:04.497Z,0.80
2023-10-23T01:23:36.772Z,0.80
2023-10-23T01:26:05.947Z,0.80
2023-10-23T01:28:33.600Z,1.20
2023-10-23T01:31:01.412Z,1.00
2023-10-23T01:33:30.975Z,0.95
2023-10-23T01:35:58.724Z,0.65
2023-10-23T01:38:26.645Z,0.63
2023-10-23T01:40:54.772Z,0.90
2023-10-23T01:43:23.842Z,1.20
2023-10-23T01:45:51.585Z,0.90
2023-10-23T01:48:19.315Z,0.80
2023-10-23T01:50:47.109Z,1.07
2023-10-23T01:53:14.809Z,0.70
2023-10-23T01:55:42.492Z,0.83
2023-10-23T01:58:10.202Z,1.00
2023-10-23T02:00:39.257Z,0.70
2023-10-23T02:03:07.093Z,0.90
2023-10-23T02:05:35.072Z,0.83
2023-10-23T02:08:02.798Z,0.90
2023-10-23T02:10:31.163Z,0.90
2023-10-23T02:12:58.913Z,0.67
2023-10-23T02:15:26.648Z,0.90
2023-10-23T02:17:56.156Z,0.83
2023-10-23T02:20:28.418Z,0.57
2023-10-23T02:22:56.112Z,0.63
2023-10-23T02:25:23.952Z,0.70
2023-10-23T02:27:51.654Z,0.43
2023-10-23T02:30:19.576Z,0.50
2023-10-23T02:32:47.312Z,0.60
2023-10-23T02:35:16.740Z,0.63
2023-10-23T02:37:44.432Z,0.77
2023-10-23T02:40:13.562Z,0.73
2023-10-23T02:42:41.557Z,0.60
2023-10-23T02:45:10.357Z,0.53
2023-10-23T02:47:38.661Z,1.00
2023-10-23T02:50:07.235Z,0.87
2023-10-23T02:52:36.258Z,0.70
2023-10-23T02:55:04.023Z,0.90
2023-10-23T02:57:31.913Z,0.80
2023-10-23T02:59:59.811Z,0.87
2023-10-23T03:02:27.842Z,0.60
2023-10-23T03:04:55.608Z,0.60
2023-10-23T03:07:23.290Z,0.90
2023-10-23T03:09:53.080Z,0.60
2023-10-23T03:12:21.442Z,0.70
2023-10-23T03:14:49.154Z,0.70
2023-10-23T03:17:16.866Z,0.63
2023-10-23T03:19:44.491Z,0.93
2023-10-23T03:22:12.197Z,0.63
2023-10-23T03:24:40.754Z,0.70
2023-10-23T03:27:09.826Z,0.60
2023-10-23T03:29:37.744Z,0.53
2023-10-23T03:32:05.843Z,0.83
2023-10-23T03:34:33.873Z,1.00
2023-10-23T03:37:02.040Z,1.10
2023-10-23T03:39:29.894Z,0.60
2023-10-23T03:41:57.552Z,0.63
2023-10-23T03:44:26.632Z,0.80
2023-10-23T03:46:55.013Z,0.60
2023-10-23T03:49:22.773Z,0.90
2023-10-23T03:51:50.652Z,0.60
2023-10-23T03:54:18.320Z,0.77
2023-10-23T03:56:45.985Z,0.90
2023-10-23T03:59:13.737Z,0.70
2023-10-23T04:01:42.783Z,0.67
2023-10-23T04:04:11.430Z,0.80
2023-10-23T04:06:40.398Z,0.70
2023-10-23T04:09:08.534Z,0.67
2023-10-23T04:11:36.474Z,0.57
2023-10-23T04:14:05.379Z,0.90
2023-10-23T04:16:33.316Z,0.60
2023-10-23T04:19:02.488Z,0.43
2023-10-23T04:21:30.215Z,0.60
2023-10-23T04:23:57.920Z,0.83
2023-10-23T04:26:25.565Z,0.80
2023-10-23T04:28:53.300Z,0.80
2023-10-23T04:31:21.037Z,0.60
2023-10-23T04:33:48.747Z,0.67
2023-10-23T04:36:17.861Z,0.50
2023-10-23T04:38:45.525Z,0.93
2023-10-23T04:41:13.287Z,0.60
2023-10-23T04:43:41.293Z,0.70
2023-10-23T04:46:09.100Z,0.50
2023-10-23T04:48:37.038Z,1.23
2023-10-23T04:51:05.354Z,0.97
2023-10-23T04:53:34.527Z,0.83
2023-10-23T04:56:06.417Z,0.73
2023-10-23T04:58:34.346Z,1.17
2023-10-23T05:01:02.176Z,1.07
2023-10-23T05:03:31.120Z,0.97
2023-10-23T05:05:59.012Z,1.33
2023-10-23T05:08:26.717Z,0.80
2023-10-23T05:11:06.121Z,0.50
2023-10-23T05:13:33.780Z,0.77
2023-10-23T05:16:05.739Z,0.87
2023-10-23T05:18:34.134Z,1.13
2023-10-23T05:21:07.908Z,1.20
2023-10-23T05:23:35.744Z,1.10
2023-10-23T05:26:04.815Z,1.37
2023-10-23T05:28:32.883Z,1.00
2023-10-23T05:31:00.616Z,1.30
2023-10-23T05:33:28.312Z,1.50
2023-10-23T05:36:03.027Z,1.60
2023-10-23T05:38:30.719Z,1.30
2023-10-23T05:40:58.629Z,1.63
2023-10-23T05:43:28.547Z,1.60
2023-10-23T05:45:56.374Z,1.93
2023-10-23T05:48:24.456Z,1.90
2023-10-23T05:50:59.618Z,1.30
2023-10-23T05:53:27.616Z,1.27
2023-10-23T05:55:55.449Z,2.00
2023-10-23T05:58:23.530Z,2.07
2023-10-23T06:00:52.630Z,2.00
2023-10-23T06:03:20.389Z,1.60
2023-10-23T06:05:48.190Z,1.60
2023-10-23T06:08:15.900Z,2.43
2023-10-23T06:10:44.482Z,2.03
2023-10-23T06:13:12.712Z,1.67
2023-10-23T06:15:40.698Z,1.70
2023-10-23T06:18:10.275Z,1.70
2023-10-23T06:20:37.963Z,1.87
2023-10-23T06:23:05.842Z,1.83
2023-10-23T06:25:33.568Z,2.10
2023-10-23T06:28:01.782Z,1.70
2023-10-23T06:30:29.648Z,2.37
2023-10-23T06:32:57.437Z,2.37
2023-10-23T06:35:26.602Z,2.20
2023-10-23T06:37:54.338Z,2.73
2023-10-23T06:40:22.067Z,1.77
2023-10-23T06:42:49.846Z,2.20
2023-10-23T06:45:17.684Z,1.90
2023-10-23T06:47:49.752Z,2.47
2023-10-23T06:50:17.693Z,1.97
2023-10-23T06:52:47.296Z,1.67
2023-10-23T06:55:15.074Z,2.20
2023-10-23T06:57:42.728Z,1.67
2023-10-23T07:00:12.150Z,1.77
2023-10-23T07:02:39.920Z,1.93
2023-10-23T07:05:08.318Z,1.47
2023-10-23T07:07:36.068Z,1.50
2023-10-23T07:10:06.576Z,2.30
2023-10-23T07:12:34.270Z,2.50
2023-10-23T07:15:03.955Z,1.90
2023-10-23T07:17:31.880Z,2.37
2023-10-23T07:19:59.793Z,2.73
2023-10-23T07:22:27.516Z,2.70
2023-10-23T07:24:56.670Z,2.33
2023-10-23T07:27:27.269Z,2.30
2023-10-23T07:29:56.971Z,3.00
2023-10-23T07:32:24.726Z,2.70
2023-10-23T07:34:52.543Z,2.50
2023-10-23T07:37:20.276Z,2.97
2023-10-23T07:39:48.900Z,2.40
2023-10-23T07:42:16.855Z,2.17
2023-10-23T07:44:45.980Z,3.27
2023-10-23T07:47:14.587Z,2.87
2023-10-23T07:49:42.346Z,2.87
2023-10-23T07:52:10.257Z,2.27
2023-10-23T07:54:38.021Z,2.10
2023-10-23T07:57:06.481Z,3.20
2023-10-23T07:59:34.174Z,2.83
2023-10-23T08:02:04.258Z,3.40
2023-10-23T08:04:33.254Z,3.37
2023-10-23T08:07:01.955Z,2.90
2023-10-23T08:09:29.738Z,2.03
2023-10-23T08:11:57.481Z,2.47
2023-10-23T08:14:25.213Z,2.63
2023-10-23T08:16:53.773Z,2.60
2023-10-23T08:19:23.016Z,3.57
2023-10-23T08:21:50.810Z,2.77
2023-10-23T08:24:18.643Z,3.47
2023-10-23T08:26:46.340Z,2.80
2023-10-23T08:29:17.053Z,2.90
2023-10-23T08:31:44.971Z,2.33
2023-10-23T08:34:12.764Z,2.90
2023-10-23T08:36:41.998Z,2.72
2023-10-23T08:39:09.790Z,2.80
2023-10-23T08:41:42.278Z,2.42
2023-10-23T08:44:11.536Z,2.88
2023-10-23T08:46:42.101Z,2.25
2023-10-23T08:49:10.171Z,2.10
2023-10-23T08:51:43.542Z,2.85
2023-10-23T08:54:18.565Z,2.75
2023-10-23T08:56:47.061Z,2.75
2023-10-23T08:59:15.538Z,2.63
2023-10-23T09:01:43.665Z,2.75
2023-10-23T09:04:13.269Z,2.63
2023-10-23T09:06:43.618Z,3.10
2023-10-23T09:09:12.047Z,2.15
2023-10-23T09:11:40.894Z,2.92
2023-10-23T09:14:08.617Z,2.55
2023-10-23T09:16:37.257Z,2.55
2023-10-23T09:19:05.775Z,2.67
2023-10-23T09:21:33.761Z,2.17
2023-10-23T09:24:04.827Z,1.88
2023-10-23T09:26:32.940Z,2.28
2023-10-23T09:29:00.623Z,2.70
2023-10-23T09:31:29.033Z,2.35
2023-10-23T09:33:57.034Z,1.92
2023-10-23T09:36:28.159Z,1.70
2023-10-23T09:39:00.177Z,1.80
2023-10-23T09:41:31.451Z,1.58
2023-10-23T09:44:01.738Z,2.10
2023-10-23T09:46:30.870Z,1.77
2023-10-23T09:49:01.467Z,1.58
2023-10-23T09:51:31.692Z,1.73
2023-10-23T09:54:01.017Z,1.67
2023-10-23T09:56:33.415Z,1.90
2023-10-23T09:59:02.695Z,1.80
2023-10-23T10:01:42.183Z,1.55
2023-10-23T10:04:15.224Z,1.75
2023-10-23T10:06:48.176Z,1.67
2023-10-23T10:09:16.918Z,2.00
2023-10-23T10:11:46.830Z,1.50
2023-10-23T10:14:15.760Z,1.80
2023-10-23T10:16:43.999Z,1.58
2023-10-23T10:19:13.393Z,1.30
2023-10-23T10:21:49.568Z,1.80
2023-10-23T10:24:18.737Z,1.30
2023-10-23T10:26:48.069Z,1.80
2023-10-23T10:29:15.867Z,1.42
2023-10-23T10:32:11.121Z,1.60
2023-10-23T10:34:55.361Z,1.42
2023-10-23T10:37:27.144Z,1.58
2023-10-23T10:40:05.865Z,1.60
2023-10-23T10:42:37.847Z,2.00
2023-10-23T10:45:20.589Z,1.98
2023-10-23T10:47:50.879Z,1.52
2023-10-23T10:50:34.154Z,1.50
2023-10-23T10:53:04.586Z,1.75
2023-10-23T10:55:33.282Z,1.70
2023-10-23T10:58:02.900Z,1.58
2023-10-23T11:00:31.573Z,1.50
2023-10-23T11:02:59.686Z,1.75
2023-10-23T11:05:27.604Z,1.58
2023-10-23T11:07:55.723Z,1.80
2023-10-23T11:10:23.839Z,1.23
2023-10-23T11:12:52.435Z,1.40
2023-10-23T11:15:21.583Z,1.38
2023-10-23T11:17:49.430Z,1.88
2023-10-23T11:20:17.887Z,1.50
2023-10-23T11:22:46.652Z,1.30
2023-10-23T11:25:16.616Z,1.38
2023-10-23T11:27:44.432Z,1.30
2023-10-23T11:30:12.734Z,1.17
2023-10-23T11:32:41.991Z,1.40
2023-10-23T11:35:10.337Z,1.20
2023-10-23T11:37:42.217Z,1.35
2023-10-23T11:40:11.624Z,0.95
2023-10-23T11:42:48.435Z,1.13
2023-10-23T11:45:18.216Z,1.00
2023-10-23T11:47:48.178Z,1.10
2023-10-23T11:50:16.222Z,1.13
2023-10-23T11:52:46.386Z,1.02
2023-10-23T11:55:16.297Z,0.80
2023-10-23T11:57:47.725Z,0.88
2023-10-23T12:00:17.343Z,1.10
2023-10-23T12:02:48.009Z,0.90
2023-10-23T12:05:18.030Z,0.90
2023-10-23T12:07:48.492Z,0.93
2023-10-23T12:10:18.128Z,0.70
2023-10-23T12:12:47.148Z,1.05
2023-10-23T12:15:16.559Z,0.85
2023-10-23T12:17:44.960Z,0.93
2023-10-23T12:20:17.237Z,0.82
2023-10-23T12:22:47.075Z,1.08
2023-10-23T12:25:17.305Z,0.88
2023-10-23T12:27:45.228Z,1.13
2023-10-23T12:30:16.429Z,1.00
2023-10-23T12:33:11.604Z,0.60
2023-10-23T12:35:38.894Z,0.70
2023-10-23T12:38:07.027Z,1.20
2023-10-23T12:40:37.054Z,1.02
2023-10-23T12:43:05.656Z,1.00
2023-10-23T12:45:33.534Z,0.82
2023-10-23T12:48:01.425Z,1.40
2023-10-23T12:50:30.066Z,0.95
2023-10-23T12:52:59.317Z,1.10
2023-10-23T12:55:27.115Z,0.90
2023-10-23T12:57:55.046Z,0.90
2023-10-23T13:00:22.786Z,0.90
2023-10-23T13:02:50.565Z,0.95
2023-10-23T13:05:18.328Z,1.50
2023-10-23T13:07:46.115Z,1.30
2023-10-23T13:10:15.191Z,0.77
2023-10-23T13:12:42.922Z,0.93
2023-10-23T13:15:10.766Z,0.75
2023-10-23T13:17:38.467Z,0.85
2023-10-23T13:21:29.563Z,0.70
2023-10-23T13:22:55.422Z,0.70
2023-10-23T13:25:24.595Z,0.75
2023-10-23T13:27:52.393Z,0.40
2023-10-23T13:30:20.111Z,0.40
2023-10-23T13:32:47.934Z,0.70
2023-10-23T13:35:16.497Z,0.68
2023-10-23T13:37:44.247Z,0.93
2023-10-23T13:40:12.980Z,0.60
2023-10-23T13:42:42.181Z,0.73
2023-10-23T13:45:11.002Z,0.60
2023-10-23T13:47:38.874Z,0.57
2023-10-23T13:50:07.621Z,0.60
2023-10-23T13:52:35.334Z,0.57
2023-10-23T13:55:03.958Z,0.50
2023-10-23T13:57:31.710Z,0.40
2023-10-23T14:00:00.733Z,0.70
2023-10-23T14:02:28.527Z,0.35
2023-10-23T14:04:57.165Z,0.40
2023-10-23T14:07:24.930Z,0.32
2023-10-23T14:09:53.107Z,0.60
2023-10-23T14:12:21.294Z,0.40
2023-10-23T14:14:49.236Z,0.40
2023-10-23T14:17:18.441Z,0.55
2023-10-23T14:19:48.537Z,0.50
2023-10-23T14:22:17.133Z,0.60
2023-10-23T14:24:45.102Z,0.60
2023-10-23T14:27:12.962Z,0.60
2023-10-23T14:29:41.060Z,0.50
2023-10-23T14:32:09.066Z,0.57
2023-10-23T14:34:38.130Z,0.50
2023-10-23T14:37:05.816Z,0.43
2023-10-23T14:39:33.771Z,0.60
2023-10-23T14:42:01.451Z,0.45
2023-10-23T14:44:30.411Z,0.45
2023-10-23T14:46:58.256Z,0.75
2023-10-23T14:49:26.647Z,0.75
2023-10-23T14:51:56.024Z,0.65
2023-10-23T14:54:23.978Z,0.98
2023-10-23T14:56:53.253Z,0.65
2023-10-23T14:59:22.847Z,0.73
2023-10-23T15:01:50.705Z,0.68
2023-10-23T15:04:18.811Z,0.30
2023-10-23T15:06:46.599Z,0.60
2023-10-23T15:09:15.650Z,0.73
2023-10-23T15:11:43.415Z,0.60
2023-10-23T15:14:11.458Z,0.70
2023-10-23T15:16:39.638Z,0.40
2023-10-23T15:19:07.445Z,0.50
2023-10-23T15:21:35.184Z,0.70
2023-10-23T15:24:02.912Z,0.85
2023-10-23T15:26:31.906Z,0.75
2023-10-23T15:28:59.641Z,0.80
2023-10-23T15:31:27.427Z,0.60
2023-10-23T15:33:55.292Z,0.70
2023-10-23T15:36:23.010Z,0.50
2023-10-23T15:38:50.829Z,0.73
2023-10-23T15:41:18.541Z,0.52
2023-10-23T15:43:52.453Z,0.60
2023-10-23T15:46:20.798Z,0.85
2023-10-23T15:48:48.613Z,0.50
2023-10-23T15:51:16.901Z,0.63
2023-10-23T15:53:44.636Z,1.17
2023-10-23T15:56:12.446Z,0.35
2023-10-23T15:58:40.180Z,0.80
2023-10-23T16:01:10.418Z,0.50
2023-10-23T16:03:38.422Z,0.68
2023-10-23T16:06:09.170Z,0.60
2023-10-23T16:08:38.499Z,0.60
2023-10-23T16:11:07.125Z,0.70
2023-10-23T16:13:38.100Z,0.60
2023-10-23T16:16:07.091Z,0.63
2023-10-23T16:18:44.302Z,0.55
2023-10-23T16:21:13.863Z,0.70
2023-10-23T16:23:41.612Z,0.70
2023-10-23T16:26:09.426Z,0.98
2023-10-23T16:28:37.179Z,0.60
2023-10-23T16:31:05.163Z,0.90
2023-10-23T16:33:33.825Z,0.52
2023-10-23T16:36:02.931Z,0.43
2023-10-23T16:38:30.651Z,0.80
2023-10-23T16:40:58.307Z,0.70
2023-10-23T16:43:26.124Z,0.57
2023-10-23T16:45:53.876Z,0.70
2023-10-23T16:48:21.868Z,0.88
2023-10-23T16:50:49.623Z,0.70
2023-10-23T16:53:19.801Z,1.30
2023-10-23T16:55:53.169Z,0.70
2023-10-23T16:58:24.396Z,0.50
2023-10-23T17:00:53.575Z,0.68
2023-10-23T17:03:21.830Z,0.63
2023-10-23T17:05:49.774Z,0.55
2023-10-23T17:08:18.873Z,0.73
2023-10-23T17:10:46.560Z,0.80
2023-10-23T17:13:14.364Z,1.00
2023-10-23T17:15:45.416Z,0.60
2023-10-23T17:18:13.232Z,0.80
2023-10-23T17:20:44.929Z,0.80
2023-10-23T17:23:13.097Z,0.80
2023-10-23T17:25:42.736Z,0.80
2023-10-23T17:28:10.471Z,0.75
2023-10-23T17:30:38.348Z,0.80
2023-10-23T17:33:08.033Z,0.98
2023-10-23T17:35:36.031Z,1.17
2023-10-23T17:38:04.976Z,0.70
2023-10-23T17:40:37.386Z,0.82
2023-10-23T17:43:07.081Z,1.05
2023-10-23T17:45:35.534Z,1.15
2023-10-23T17:48:11.874Z,1.27
2023-10-23T17:50:42.153Z,0.70
2023-10-23T17:53:12.483Z,1.00
2023-10-23T17:55:41.591Z,1.33
2023-10-23T17:58:12.592Z,1.02
2023-10-23T18:00:45.834Z,1.08
2023-10-23T18:03:19.151Z,0.80
2023-10-23T18:06:01.812Z,1.10
2023-10-23T18:08:40.849Z,1.25
2023-10-23T18:11:08.796Z,1.15
2023-10-23T18:13:37.980Z,1.02
2023-10-23T18:16:06.479Z,1.50
2023-10-23T18:18:34.314Z,1.25
2023-10-23T18:21:02.161Z,1.08
2023-10-23T18:23:29.959Z,1.25
2023-10-23T18:26:00.609Z,1.55
2023-10-23T18:28:29.095Z,1.30
2023-10-23T18:31:01.803Z,1.10
2023-10-23T18:33:30.428Z,1.80
2023-10-23T18:36:02.159Z,1.20
2023-10-23T18:38:30.488Z,1.17
2023-10-23T18:40:58.358Z,1.27
2023-10-23T18:43:28.243Z,1.58
2023-10-23T18:45:58.270Z,1.50
2023-10-23T18:48:26.299Z,1.13
2023-10-23T18:51:01.015Z,1.20
2023-10-23T18:53:29.335Z,1.10
2023-10-23T18:55:57.006Z,1.02
2023-10-23T18:58:24.925Z,1.60
2023-10-23T19:00:53.545Z,0.82
2023-10-23T19:03:22.863Z,1.30
2023-10-23T19:05:53.664Z,1.20
2023-10-23T19:08:22.581Z,1.38
2023-10-23T19:10:50.774Z,2.00
2023-10-23T19:13:18.525Z,1.25
2023-10-23T19:15:46.282Z,1.38
2023-10-23T19:18:14.094Z,1.50
2023-10-23T19:20:43.172Z,1.20
2023-10-23T19:23:11.015Z,1.33
2023-10-23T19:25:38.746Z,2.13
2023-10-23T19:28:06.626Z,1.80
2023-10-23T19:30:34.461Z,1.17
2023-10-23T19:33:02.755Z,1.13
2023-10-23T19:35:31.625Z,1.48
2023-10-23T19:38:01.311Z,2.08
2023-10-23T19:40:29.773Z,1.52
2023-10-23T19:43:04.569Z,1.27
2023-10-23T19:45:32.926Z,1.27
2023-10-23T19:48:01.219Z,1.38
2023-10-23T19:50:29.631Z,0.82
2023-10-23T19:53:01.985Z,1.15
2023-10-23T19:55:43.591Z,1.52
2023-10-23T19:58:14.320Z,0.98
2023-10-23T20:00:42.158Z,1.40
2023-10-23T20:03:09.959Z,1.40
2023-10-23T20:05:38.248Z,1.40
2023-10-23T20:08:07.511Z,1.80
2023-10-23T20:10:35.329Z,1.13
2023-10-23T20:13:05.683Z,1.27
2023-10-23T20:15:33.432Z,1.25
2023-10-23T20:18:01.138Z,1.20
2023-10-23T20:20:29.028Z,1.20
2023-10-23T20:22:56.700Z,1.30
2023-10-23T20:25:25.880Z,1.70
2023-10-23T20:27:53.611Z,1.20
2023-10-23T20:30:21.286Z,1.30
2023-10-23T20:32:49.530Z,1.27
2023-10-23T20:35:17.497Z,1.30
2023-10-23T20:37:45.705Z,1.23
2023-10-23T20:40:14.146Z,1.17
2023-10-23T20:42:43.242Z,1.40
2023-10-23T20:45:13.097Z,0.80
2023-10-23T20:47:41.190Z,1.00
2023-10-23T20:50:09.869Z,1.30
2023-10-23T20:52:37.617Z,1.35
2023-10-23T20:55:06.507Z,1.25
2023-10-23T20:57:34.292Z,1.33
2023-10-23T21:00:07.208Z,1.25
2023-10-23T21:02:34.931Z,1.20
2023-10-23T21:05:02.653Z,1.30
2023-10-23T21:07:30.458Z,1.05
2023-10-23T21:09:58.158Z,1.05
2023-10-23T21:12:27.101Z,1.27
2023-10-23T21:14:55.333Z,1.23
2023-10-23T21:17:24.375Z,1.40
2023-10-23T21:19:52.118Z,1.20
2023-10-23T21:22:19.899Z,1.50
2023-10-23T21:24:47.930Z,1.53
2023-10-23T21:27:16.421Z,1.02
2023-10-23T21:29:45.175Z,1.13
2023-10-23T21:32:13.070Z,1.40
2023-10-23T21:34:42.231Z,1.23
2023-10-23T21:37:10.014Z,1.15
2023-10-23T21:39:37.852Z,1.33
2023-10-23T21:42:06.065Z,0.98
2023-10-23T21:44:33.738Z,1.42
2023-10-23T21:47:01.512Z,1.67
2023-10-23T21:49:29.335Z,2.23
2023-10-23T21:51:59.180Z,1.90
2023-10-23T21:54:27.581Z,1.00
2023-10-23T21:57:22.017Z,1.45
2023-10-23T21:59:44.046Z,1.13
2023-10-23T22:02:12.652Z,1.38
2023-10-23T22:04:41.177Z,1.30
2023-10-23T22:07:11.306Z,1.38
2023-10-23T22:09:39.661Z,1.83
2023-10-23T22:12:09.027Z,1.15
2023-10-23T22:14:37.194Z,1.55
2023-10-23T22:17:05.377Z,1.40
2023-10-23T22:19:33.184Z,1.17
2023-10-23T22:22:02.099Z,1.07
2023-10-23T22:24:31.141Z,1.20
2023-10-23T22:26:58.869Z,1.08
2023-10-23T22:29:26.534Z,1.05
2023-10-23T22:31:56.393Z,0.90
2023-10-23T22:34:24.260Z,0.80
2023-10-23T22:37:55.721Z,1.17
2023-10-23T22:39:40.998Z,1.03
2023-10-23T22:42:08.864Z,0.90
2023-10-23T22:44:36.507Z,0.80
2023-10-23T22:47:04.381Z,1.15
2023-10-23T22:49:32.850Z,0.88
2023-10-23T22:52:00.969Z,1.20
2023-10-23T22:54:29.267Z,1.30
2023-10-23T22:57:04.036Z,1.15
2023-10-23T22:59:32.209Z,1.50
2023-10-23T23:02:01.574Z,1.30
2023-10-23T23:04:30.003Z,1.20
2023-10-23T23:07:00.697Z,1.43
2023-10-23T23:09:29.009Z,1.00
2023-10-23T23:11:58.928Z,1.20
2023-10-23T23:14:27.081Z,1.10
2023-10-23T23:17:01.364Z,1.42
2023-10-23T23:19:32.108Z,0.90
2023-10-23T23:22:06.531Z,0.80
2023-10-23T23:24:34.335Z,1.02
2023-10-23T23:27:03.492Z,1.00
2023-10-23T23:29:31.195Z,1.00
2023-10-23T23:31:59.117Z,0.82
2023-10-23T23:34:26.931Z,1.13
2023-10-23T23:36:54.839Z,0.83
2023-10-23T23:39:22.670Z,1.35
2023-10-23T23:41:50.423Z,0.77
2023-10-23T23:44:19.510Z,0.80
2023-10-23T23:46:47.298Z,1.02
2023-10-23T23:49:15.881Z,1.00
2023-10-23T23:51:43.598Z,0.98
2023-10-23T23:54:11.330Z,1.10
2023-10-23T23:56:39.013Z,0.90
2023-10-23T23:59:06.702Z,0.80
